首页
METAR-TAF:

METAR-TAF

机场 :

日利納, 斯洛伐克

纬度: 49-14N, 经度: 018-36-49E, 海拔: 312米

当前天气观测

该预报发布于22分钟前的22:00 UTC
风速2节,风向东转东南
温度 0°C
湿度 93%
气压 1033 hPa
能见度10公里或以上
1500米以下无云,无积雨云

METAR: LZZI 022200Z 11002KT CAVOK 00/M01 Q1033

时间: 23:22 (22:22 UTC)

预报

该预报发布于2小时和22分钟前的20:00 UTC
预报有效从02日的 21点(UTC)到 03日的 06点(UTC)
风速2节,风向多变
能见度10公里或以上
1500米以下无云,无积雨云
短暂存在
从 02日的 21点(UTC)到 03日的 00点(UTC)
能見度: 3500
少量云层高于300英尺
轻雾
成为
从 02日的 23点(UTC)到 03日的 01点(UTC)
能見度: 1800
多云层高于200英尺
碎片雾, 轻雾
短暂存在
从 03日的 00点(UTC)到 03日的 06点(UTC)
能見度: 0100
层高于100英尺
冻雾

TAF: LZZI 022000Z 0221/0306 VRB02KT CAVOK TEMPO 0221/0300 3500 BR FEW003 BECMG 0223/0301 1800 BCFG BR BKN002 TEMPO 0300/0306 0100 FZFG VV001

超过4000个机场的气象观测和天气预报(METAR&TAF报告)。

可查询的气象台以黄色和红色小点在地图上表示。

将鼠标移到小点上方,可查看气象台名称。

然后点击查看天气观测和预报。

如需切换地图:点击带黑十字的绿色按钮放大地图;点击带横线的绿色按钮缩小地图;或者点击绿色箭头查看邻近地区的地图。


METAR-TAF: